createdAt,value
2018-11-20T15:50:18.236Z,5.97
2018-11-20T15:53:04.455Z,5.20
2018-11-20T15:55:50.564Z,6.60
2018-11-20T15:58:42.342Z,14.63
2018-11-20T16:01:37.545Z,43.37
2018-11-20T16:04:21.515Z,29.40
2018-11-20T16:07:07.606Z,11.20
2018-11-20T16:09:53.834Z,6.17
2018-11-20T16:12:40.063Z,7.23
2018-11-20T16:15:17.960Z,6.47
2018-11-20T16:18:14.677Z,8.07
2018-11-20T16:21:01.244Z,12.17
2018-11-20T16:24:07.284Z,8.93
2018-11-20T16:26:43.601Z,12.23
2018-11-20T16:29:29.625Z,11.90
2018-11-20T16:32:13.583Z,10.83
2018-11-20T16:35:06.417Z,9.23
2018-11-20T16:37:47.210Z,12.07
2018-11-20T16:40:43.777Z,11.57
2018-11-20T16:43:30.071Z,11.80
2018-11-20T16:46:16.695Z,11.60
2018-11-20T16:49:16.027Z,10.80
2018-11-20T16:52:09.168Z,13.90
2018-11-20T16:54:56.053Z,14.90
2018-11-20T16:57:43.652Z,11.83
2018-11-20T17:00:30.226Z,12.43
2018-11-20T17:03:38.587Z,12.00
2018-11-20T17:06:24.279Z,12.70
2018-11-20T17:09:10.597Z,13.63
2018-11-20T17:11:58.076Z,14.83
2018-11-20T17:14:58.153Z,15.13
2018-11-20T17:17:57.955Z,14.07
2018-11-20T17:20:43.615Z,14.40
2018-11-20T17:23:31.110Z,13.87
2018-11-20T17:26:18.642Z,15.07
2018-11-20T17:29:05.518Z,15.67
2018-11-20T17:31:51.676Z,15.20
2018-11-20T17:34:44.777Z,13.90
2018-11-20T17:37:34.872Z,14.23
2018-11-20T17:40:31.308Z,14.17
2018-11-20T17:43:17.507Z,14.23
2018-11-20T17:46:10.843Z,14.30
2018-11-20T17:49:13.425Z,14.03
2018-11-20T17:51:59.667Z,14.80
2018-11-20T17:54:53.320Z,15.27
2018-11-20T17:57:57.181Z,15.50
2018-11-20T18:00:49.403Z,16.40
2018-11-20T18:03:48.910Z,16.60
2018-11-20T18:06:32.537Z,16.20
2018-11-20T18:09:38.562Z,16.20
2018-11-20T18:12:24.656Z,17.57
2018-11-20T18:15:17.918Z,15.23
2018-11-20T18:18:02.416Z,17.57
2018-11-20T18:20:41.506Z,16.53
2018-11-20T18:23:29.003Z,17.13
2018-11-20T18:26:13.794Z,16.23
2018-11-20T18:29:00.092Z,16.97
2018-11-20T18:31:50.921Z,15.80
2018-11-20T18:34:53.130Z,16.13
2018-11-20T18:37:40.684Z,17.83
2018-11-20T18:40:33.842Z,16.83
2018-11-20T18:43:30.171Z,17.90
2018-11-20T18:46:16.576Z,16.40
2018-11-20T18:49:02.539Z,19.80
2018-11-20T18:51:50.037Z,19.03
2018-11-20T18:54:41.329Z,16.87
2018-11-20T18:57:38.029Z,16.47
2018-11-20T19:00:46.451Z,15.93
2018-11-20T19:03:34.939Z,17.93
2018-11-20T19:06:25.533Z,17.47
2018-11-20T19:09:12.282Z,17.43
2018-11-20T19:12:03.750Z,17.90
2018-11-20T19:14:47.326Z,16.83
2018-11-20T19:17:53.060Z,21.17
2018-11-20T19:20:39.661Z,16.00
2018-11-20T19:23:42.165Z,18.27
2018-11-20T19:26:28.407Z,17.30
2018-11-20T19:29:31.008Z,19.77
2018-11-20T19:32:18.478Z,18.40
2018-11-20T19:35:03.395Z,20.10
2018-11-20T19:37:46.288Z,16.87
2018-11-20T19:40:32.696Z,19.00
2018-11-20T19:43:23.609Z,17.90
2018-11-20T19:46:09.713Z,15.90
2018-11-20T19:48:52.611Z,16.77
2018-11-20T19:51:49.085Z,18.20
2018-11-20T19:54:45.326Z,16.90
2018-11-20T19:57:28.604Z,17.70
2018-11-20T20:00:14.838Z,16.87
2018-11-20T20:03:00.869Z,16.93
2018-11-20T20:05:51.256Z,17.60
2018-11-20T20:08:41.607Z,15.33
2018-11-20T20:11:21.775Z,14.33
2018-11-20T20:14:17.959Z,15.60
2018-11-20T20:17:04.271Z,16.77
2018-11-20T20:19:53.526Z,17.57
2018-11-20T20:22:40.056Z,15.53
2018-11-20T20:25:21.562Z,16.73
2018-11-20T20:28:07.906Z,17.80
2018-11-20T20:30:57.978Z,19.33
2018-11-20T20:33:43.987Z,18.13
2018-11-20T20:36:46.359Z,18.77
2018-11-20T20:39:36.531Z,16.10
2018-11-20T20:42:22.963Z,15.70
2018-11-20T20:45:16.373Z,15.90
2018-11-20T20:48:06.755Z,17.83
2018-11-20T20:51:12.542Z,20.23
2018-11-20T20:54:06.761Z,18.10
2018-11-20T20:56:56.271Z,16.90
2018-11-20T20:59:46.446Z,16.63
2018-11-20T21:02:32.357Z,15.73
2018-11-20T21:05:10.142Z,15.43
2018-11-20T21:08:00.207Z,16.80
2018-11-20T21:10:46.192Z,16.87
2018-11-20T21:13:29.782Z,17.07
2018-11-20T21:16:23.624Z,22.40
2018-11-20T21:19:01.632Z,18.80
2018-11-20T21:21:47.803Z,18.27
2018-11-20T21:24:30.217Z,18.80
2018-11-20T21:27:26.774Z,19.33
2018-11-20T21:30:12.883Z,17.27
2018-11-20T21:32:55.017Z,18.17
2018-11-20T21:35:51.241Z,17.80
2018-11-20T21:38:53.794Z,18.27
2018-11-20T21:41:41.312Z,18.20
2018-11-20T21:44:27.374Z,16.63
2018-11-20T21:47:14.881Z,18.83
2018-11-20T21:50:00.899Z,17.53
2018-11-20T21:53:00.261Z,16.67
2018-11-20T21:55:53.668Z,16.73
2018-11-20T21:58:33.884Z,17.60
2018-11-20T22:01:22.679Z,32.57
2018-11-20T22:04:28.351Z,31.20
2018-11-20T22:07:15.363Z,20.57
2018-11-20T22:10:20.043Z,18.10
2018-11-20T22:13:19.405Z,15.60
2018-11-20T22:16:04.880Z,16.53
2018-11-20T22:19:04.238Z,18.67
2018-11-20T22:21:41.062Z,17.23
2018-11-20T22:24:26.684Z,16.83
2018-11-20T22:27:13.481Z,14.80
2018-11-20T22:30:03.793Z,15.20
2018-11-20T22:33:01.775Z,16.23
2018-11-20T22:35:47.834Z,15.97
2018-11-20T22:38:38.207Z,19.23
2018-11-20T22:41:28.579Z,17.80
2018-11-20T22:44:14.596Z,16.23
2018-11-20T22:47:11.341Z,16.13
2018-11-20T22:49:54.613Z,16.37
2018-11-20T22:53:00.257Z,16.60
2018-11-20T22:55:54.107Z,19.57
2018-11-20T22:58:38.281Z,19.93
2018-11-20T23:01:25.755Z,22.70
2018-11-20T23:04:12.185Z,21.53
2018-11-20T23:06:58.785Z,21.37
2018-11-20T23:09:27.218Z,20.20
2018-11-20T23:11:55.607Z,19.67
2018-11-20T23:14:24.049Z,18.03
2018-11-20T23:16:52.433Z,17.80
2018-11-20T23:19:20.866Z,17.53
2018-11-20T23:21:49.264Z,17.97
2018-11-20T23:24:17.939Z,18.40
2018-11-20T23:26:46.377Z,19.63
2018-11-20T23:29:14.758Z,18.27
2018-11-20T23:31:43.186Z,17.13
2018-11-20T23:34:11.647Z,20.00
2018-11-20T23:36:40.069Z,21.13
2018-11-20T23:39:09.747Z,21.43
2018-11-20T23:41:38.162Z,18.13
2018-11-20T23:44:06.553Z,19.13
2018-11-20T23:46:34.995Z,19.23
2018-11-20T23:49:03.391Z,20.00
2018-11-20T23:51:31.829Z,19.37
2018-11-20T23:54:00.266Z,20.70
2018-11-20T23:56:28.712Z,18.60
2018-11-20T23:58:57.142Z,20.27
